createdAt,value
2023-04-19T00:01:06.551Z,4.00
2023-04-19T00:03:34.794Z,3.17
2023-04-19T00:06:03.157Z,2.40
2023-04-19T00:08:31.227Z,3.73
2023-04-19T00:11:02.882Z,4.50
2023-04-19T00:13:30.880Z,2.43
2023-04-19T00:15:59.124Z,2.87
2023-04-19T00:18:27.148Z,1.77
2023-04-19T00:20:55.204Z,2.10
2023-04-19T00:23:23.130Z,2.60
2023-04-19T00:25:51.534Z,2.17
2023-04-19T00:28:20.903Z,2.73
2023-04-19T00:30:48.947Z,4.77
2023-04-19T00:33:17.265Z,5.13
2023-04-19T00:35:45.254Z,3.40
2023-04-19T00:38:14.030Z,2.30
2023-04-19T00:40:41.975Z,1.23
2023-04-19T00:43:10.250Z,1.30
2023-04-19T00:45:39.872Z,1.93
2023-04-19T00:48:08.631Z,2.13
2023-04-19T00:50:37.276Z,1.30
2023-04-19T00:53:05.825Z,1.97
2023-04-19T00:55:34.153Z,1.60
2023-04-19T00:58:02.079Z,1.53
2023-04-19T01:00:30.164Z,2.13
2023-04-19T01:03:00.191Z,1.57
2023-04-19T01:05:28.602Z,1.27
2023-04-19T01:07:56.727Z,1.10
2023-04-19T01:10:24.695Z,2.20
2023-04-19T01:12:53.679Z,1.70
2023-04-19T01:15:22.588Z,1.50
2023-04-19T01:17:51.001Z,2.07
2023-04-19T01:20:20.602Z,2.07
2023-04-19T01:22:56.584Z,2.90
2023-04-19T01:25:24.909Z,3.53
2023-04-19T01:27:53.068Z,3.37
2023-04-19T01:30:21.038Z,2.87
2023-04-19T01:32:49.413Z,3.17
2023-04-19T01:35:17.969Z,4.53
2023-04-19T01:37:45.998Z,1.83
2023-04-19T01:40:16.604Z,3.23
2023-04-19T01:42:44.737Z,2.83
2023-04-19T01:45:13.063Z,2.23
2023-04-19T01:47:41.175Z,2.33
2023-04-19T01:50:10.167Z,1.77
2023-04-19T01:52:38.583Z,2.07
2023-04-19T01:55:08.266Z,2.57
2023-04-19T01:57:37.822Z,2.57
2023-04-19T02:00:08.944Z,2.00
2023-04-19T02:02:38.464Z,2.20
2023-04-19T02:05:07.569Z,2.67
2023-04-19T02:07:35.714Z,2.40
2023-04-19T02:10:04.131Z,4.63
2023-04-19T02:12:34.462Z,2.43
2023-04-19T02:15:05.311Z,2.43
2023-04-19T02:17:34.248Z,1.93
2023-04-19T02:20:02.340Z,5.17
2023-04-19T02:22:30.703Z,2.37
2023-04-19T02:24:58.788Z,2.43
2023-04-19T02:27:26.743Z,2.30
2023-04-19T02:29:55.115Z,2.10
2023-04-19T02:32:24.563Z,2.20
2023-04-19T02:34:52.466Z,2.40
2023-04-19T02:37:20.505Z,3.63
2023-04-19T02:39:48.470Z,2.27
2023-04-19T02:42:16.555Z,2.43
2023-04-19T02:44:44.759Z,2.07
2023-04-19T02:47:13.961Z,2.30
2023-04-19T02:49:43.348Z,2.47
2023-04-19T02:52:11.546Z,2.53
2023-04-19T02:54:39.566Z,2.13
2023-04-19T02:57:07.652Z,3.60
2023-04-19T02:59:35.848Z,2.57
2023-04-19T03:02:04.703Z,2.47
2023-04-19T03:04:32.861Z,2.43
2023-04-19T03:07:02.376Z,2.67
2023-04-19T03:09:31.051Z,2.50
2023-04-19T03:11:59.389Z,2.60
2023-04-19T03:14:27.537Z,2.50
2023-04-19T03:16:56.005Z,2.93
2023-04-19T03:19:24.076Z,3.27
2023-04-19T03:21:52.139Z,3.00
2023-04-19T03:24:21.642Z,3.27
2023-04-19T03:26:49.520Z,3.17
2023-04-19T03:29:17.769Z,3.37
2023-04-19T03:31:47.078Z,3.73
2023-04-19T03:34:15.295Z,3.10
2023-04-19T03:36:43.631Z,3.50
2023-04-19T03:39:12.205Z,3.20
2023-04-19T03:41:41.746Z,2.97
2023-04-19T03:44:09.952Z,3.50
2023-04-19T03:46:37.952Z,6.53
2023-04-19T03:49:06.195Z,3.60
2023-04-19T03:51:34.296Z,4.93
2023-04-19T03:54:02.152Z,3.83
2023-04-19T03:56:30.088Z,4.23
2023-04-19T03:58:59.700Z,6.00
2023-04-19T04:01:27.886Z,6.07
2023-04-19T04:03:56.128Z,3.33
2023-04-19T04:06:24.285Z,4.20
2023-04-19T04:08:52.297Z,4.50
2023-04-19T04:11:20.189Z,4.07
2023-04-19T04:13:49.742Z,3.30
2023-04-19T04:16:19.175Z,5.13
2023-04-19T04:18:47.060Z,4.43
2023-04-19T04:21:15.263Z,4.83
2023-04-19T04:23:43.213Z,3.63
2023-04-19T04:26:13.958Z,3.70
2023-04-19T04:28:46.077Z,3.93
2023-04-19T04:31:14.022Z,4.73
2023-04-19T04:33:43.627Z,3.77
2023-04-19T04:36:12.142Z,6.77
2023-04-19T04:38:40.214Z,4.27
2023-04-19T04:41:09.063Z,5.27
2023-04-19T04:43:37.493Z,4.20
2023-04-19T04:46:06.163Z,6.03
2023-04-19T04:48:34.221Z,4.33
2023-04-19T04:51:03.800Z,3.93
2023-04-19T04:53:31.735Z,3.77
2023-04-19T04:55:59.842Z,4.13
2023-04-19T04:58:28.083Z,4.03
2023-04-19T05:00:58.525Z,5.40
2023-04-19T05:03:27.822Z,3.50
2023-04-19T05:05:56.555Z,3.97
2023-04-19T05:08:28.566Z,6.00
2023-04-19T05:10:57.404Z,5.07
2023-04-19T05:13:25.712Z,4.67
2023-04-19T05:15:54.810Z,4.53
2023-04-19T05:18:23.299Z,5.20
2023-04-19T05:20:53.121Z,6.40
2023-04-19T05:23:21.430Z,5.07
2023-04-19T05:25:50.732Z,6.47
2023-04-19T05:28:18.820Z,4.23
2023-04-19T05:30:47.112Z,7.93
2023-04-19T05:33:15.037Z,4.73
2023-04-19T05:35:43.241Z,4.23
2023-04-19T05:38:11.172Z,7.63
2023-04-19T05:40:40.267Z,5.00
2023-04-19T05:43:09.734Z,5.73
2023-04-19T05:45:38.970Z,5.63
2023-04-19T05:48:07.554Z,3.77
2023-04-19T05:50:36.582Z,3.87
2023-04-19T05:53:04.708Z,4.80
2023-04-19T05:55:32.742Z,4.67
2023-04-19T05:58:01.017Z,6.70
2023-04-19T06:00:30.514Z,5.30
2023-04-19T06:02:58.657Z,9.33
2023-04-19T06:05:26.737Z,4.20
2023-04-19T06:08:02.701Z,4.03
2023-04-19T06:10:41.214Z,5.83
2023-04-19T06:13:19.274Z,4.27
2023-04-19T06:15:48.917Z,4.83
2023-04-19T06:18:18.866Z,4.23
2023-04-19T06:20:47.907Z,6.07
2023-04-19T06:23:17.352Z,5.80
2023-04-19T06:25:45.507Z,4.90
2023-04-19T06:28:13.460Z,4.20
2023-04-19T06:30:42.257Z,5.30
2023-04-19T06:33:11.730Z,5.70
2023-04-19T06:35:40.721Z,4.87
2023-04-19T06:38:09.463Z,7.37
2023-04-19T06:40:37.378Z,5.70
2023-04-19T06:43:05.817Z,8.13
2023-04-19T06:45:34.503Z,6.03
2023-04-19T06:48:02.654Z,4.50
2023-04-19T06:50:32.199Z,4.10
2023-04-19T06:53:01.454Z,3.43
2023-04-19T06:55:30.741Z,5.07
2023-04-19T06:57:59.092Z,5.33
2023-04-19T07:00:28.170Z,5.20
2023-04-19T07:02:56.667Z,7.47
2023-04-19T07:05:25.039Z,5.13
2023-04-19T07:07:54.524Z,6.13
2023-04-19T07:10:22.679Z,8.80
2023-04-19T07:12:50.703Z,8.97
2023-04-19T07:15:18.805Z,7.70
2023-04-19T07:17:47.109Z,8.80
2023-04-19T07:20:15.408Z,9.23
2023-04-19T07:22:43.311Z,3.80
2023-04-19T07:25:13.363Z,5.10
2023-04-19T07:27:41.588Z,6.40
2023-04-19T07:30:11.269Z,3.83
2023-04-19T07:32:39.200Z,4.63
2023-04-19T07:35:08.309Z,4.33
2023-04-19T07:37:36.747Z,3.90
2023-04-19T07:40:05.628Z,3.47
2023-04-19T07:42:35.342Z,3.50
2023-04-19T07:45:03.673Z,3.97
2023-04-19T07:47:32.208Z,4.10
2023-04-19T07:50:00.273Z,4.27
2023-04-19T07:52:28.893Z,3.13
2023-04-19T07:54:59.475Z,3.63
2023-04-19T07:57:27.793Z,3.47
2023-04-19T07:59:59.265Z,4.30
2023-04-19T08:02:28.242Z,4.80
2023-04-19T08:04:56.759Z,3.33
2023-04-19T08:07:26.323Z,6.43
2023-04-19T08:09:55.846Z,6.03
2023-04-19T08:12:35.060Z,5.30
2023-04-19T08:15:37.184Z,6.23
2023-04-19T08:17:58.420Z,3.07
2023-04-19T08:20:26.908Z,5.63
2023-04-19T08:22:55.848Z,2.37
2023-04-19T08:25:27.043Z,3.77
2023-04-19T08:27:54.956Z,3.70
2023-04-19T08:30:25.818Z,4.50
2023-04-19T08:32:57.004Z,3.73
2023-04-19T08:35:28.626Z,4.20
2023-04-19T08:37:56.694Z,3.90
2023-04-19T08:40:25.215Z,3.50
2023-04-19T08:42:53.211Z,4.23
2023-04-19T08:45:28.311Z,4.07
2023-04-19T08:48:01.861Z,2.97
2023-04-19T08:50:37.111Z,3.60
2023-04-19T08:53:23.964Z,5.40
2023-04-19T08:58:44.557Z,5.17
2023-04-19T09:01:34.784Z,2.77
2023-04-19T09:04:21.098Z,3.07
2023-04-19T09:06:55.131Z,3.20
2023-04-19T09:09:36.579Z,5.17
2023-04-19T09:12:18.264Z,3.23
2023-04-19T09:17:20.789Z,4.50
2023-04-19T09:19:49.824Z,5.90
2023-04-19T09:22:18.617Z,3.93
2023-04-19T09:27:27.480Z,2.40
2023-04-19T09:29:56.538Z,2.60
2023-04-19T09:32:27.178Z,3.90
2023-04-19T09:34:58.062Z,3.03
2023-04-19T09:37:51.592Z,3.57
2023-04-19T09:40:28.266Z,4.00
2023-04-19T09:45:30.447Z,3.23
2023-04-19T09:48:08.475Z,5.63
2023-04-19T09:50:50.556Z,4.90
2023-04-19T09:53:24.902Z,2.83
2023-04-19T09:56:01.210Z,2.60
2023-04-19T09:58:46.312Z,2.33
2023-04-19T10:01:20.254Z,2.07
2023-04-19T10:03:52.953Z,2.70
2023-04-19T10:08:55.735Z,2.17
2023-04-19T10:11:27.110Z,3.13
2023-04-19T10:14:01.243Z,4.30
2023-04-19T10:16:31.583Z,4.37
2023-04-19T10:19:01.585Z,2.27
2023-04-19T10:21:31.548Z,3.73
2023-04-19T10:24:02.897Z,2.63
2023-04-19T10:26:31.371Z,2.57
2023-04-19T10:28:59.331Z,3.47
2023-04-19T10:31:28.075Z,3.37
2023-04-19T10:33:57.780Z,2.73
2023-04-19T10:36:30.560Z,3.27
2023-04-19T10:38:58.637Z,2.77
2023-04-19T10:42:00.336Z,2.10
2023-04-19T10:44:32.032Z,2.27
2023-04-19T10:47:00.950Z,3.37
2023-04-19T10:49:30.323Z,3.33
2023-04-19T10:52:00.360Z,3.70
2023-04-19T10:54:35.435Z,2.67
2023-04-19T10:57:05.226Z,2.97
2023-04-19T10:59:34.772Z,2.47
2023-04-19T11:02:04.464Z,4.80
2023-04-19T11:05:04.693Z,3.60
2023-04-19T11:07:41.798Z,1.70
2023-04-19T11:10:11.638Z,2.67
2023-04-19T11:12:43.788Z,2.80
2023-04-19T11:15:18.783Z,2.50
2023-04-19T11:18:00.782Z,3.37
2023-04-19T11:20:32.997Z,1.70
2023-04-19T11:23:04.481Z,4.53
2023-04-19T11:25:34.186Z,2.40
2023-04-19T11:28:04.666Z,6.60
2023-04-19T11:30:33.537Z,2.63
2023-04-19T11:33:01.741Z,2.17
2023-04-19T11:35:31.573Z,2.00
2023-04-19T11:38:01.809Z,2.87
2023-04-19T11:40:32.524Z,2.90
2023-04-19T11:43:04.186Z,2.97
2023-04-19T11:45:38.111Z,1.70
2023-04-19T11:48:08.311Z,2.30
2023-04-19T11:50:38.923Z,1.60
2023-04-19T11:53:15.697Z,2.90
2023-04-19T11:55:46.836Z,1.97
2023-04-19T11:58:26.914Z,1.40
2023-04-19T12:00:55.933Z,2.67
2023-04-19T12:03:26.547Z,1.97
2023-04-19T12:05:59.741Z,1.90
2023-04-19T12:08:36.363Z,1.90
2023-04-19T12:11:06.824Z,2.33
2023-04-19T12:13:36.655Z,1.40
2023-04-19T12:16:05.119Z,1.70
2023-04-19T12:18:49.132Z,1.70
2023-04-19T12:21:28.324Z,1.70
2023-04-19T12:23:57.970Z,1.90
2023-04-19T12:26:28.436Z,1.70
2023-04-19T12:28:56.879Z,2.03
2023-04-19T12:31:25.440Z,1.73
2023-04-19T12:33:53.617Z,2.17
2023-04-19T12:36:22.438Z,1.37
2023-04-19T12:38:50.390Z,2.17
2023-04-19T12:41:18.324Z,1.67
2023-04-19T12:43:47.611Z,1.27
2023-04-19T12:46:15.803Z,1.40
2023-04-19T12:48:43.747Z,1.47
2023-04-19T12:51:12.229Z,1.90
2023-04-19T12:53:40.096Z,1.37
2023-04-19T12:56:08.372Z,2.03
2023-04-19T12:58:36.429Z,2.20
2023-04-19T13:01:07.561Z,1.43
2023-04-19T13:03:36.837Z,1.27
2023-04-19T13:06:05.865Z,3.07
2023-04-19T13:08:44.724Z,2.13
2023-04-19T13:11:15.666Z,2.70
2023-04-19T13:13:43.673Z,2.03
2023-04-19T13:16:13.109Z,3.00
2023-04-19T13:18:41.320Z,2.93
2023-04-19T13:21:09.627Z,1.83
2023-04-19T13:23:37.812Z,2.20
2023-04-19T13:26:06.157Z,2.40
2023-04-19T13:28:35.746Z,2.33
2023-04-19T13:31:06.060Z,3.53
2023-04-19T13:33:35.645Z,4.27
2023-04-19T13:36:04.318Z,1.70
2023-04-19T13:38:32.353Z,1.63
2023-04-19T13:41:01.139Z,1.70
2023-04-19T13:43:29.053Z,1.90
2023-04-19T13:45:57.102Z,2.00
2023-04-19T13:48:27.478Z,3.10
2023-04-19T13:50:57.194Z,1.70
2023-04-19T13:53:26.450Z,1.93
2023-04-19T13:55:54.473Z,2.53
2023-04-19T13:58:22.490Z,1.67
2023-04-19T14:00:51.082Z,2.33
2023-04-19T14:03:19.392Z,3.77
2023-04-19T14:05:47.675Z,2.00
2023-04-19T14:08:17.051Z,4.40
2023-04-19T14:10:45.653Z,4.50
2023-04-19T14:13:13.720Z,1.63
2023-04-19T14:15:41.641Z,3.10
2023-04-19T14:18:09.623Z,1.93
2023-04-19T14:20:38.103Z,1.93
2023-04-19T14:23:06.140Z,2.40
2023-04-19T14:25:36.916Z,2.47
2023-04-19T14:28:05.585Z,2.80
2023-04-19T14:30:33.741Z,2.20
2023-04-19T14:33:02.066Z,2.40
2023-04-19T14:35:31.476Z,2.00
2023-04-19T14:38:00.059Z,2.17
2023-04-19T14:40:28.419Z,3.10
2023-04-19T14:42:58.019Z,2.37
2023-04-19T14:45:26.668Z,1.90
2023-04-19T14:47:54.763Z,2.43
2023-04-19T14:50:22.942Z,1.30
2023-04-19T14:52:51.167Z,2.13
2023-04-19T14:55:19.173Z,2.23
2023-04-19T14:57:47.162Z,1.40
2023-04-19T15:00:18.547Z,1.03
2023-04-19T15:02:46.817Z,2.37
2023-04-19T15:05:15.962Z,3.10
2023-04-19T15:07:44.651Z,1.67
2023-04-19T15:10:12.932Z,1.33
2023-04-19T15:12:41.374Z,1.73
2023-04-19T15:15:10.021Z,1.50
2023-04-19T15:17:39.519Z,2.10
2023-04-19T15:20:09.509Z,1.87
2023-04-19T15:22:37.797Z,1.20
2023-04-19T15:25:06.320Z,2.67
2023-04-19T15:27:34.476Z,1.53
2023-04-19T15:30:02.387Z,2.27
2023-04-19T15:32:34.408Z,2.70
2023-04-19T15:35:04.420Z,2.53
2023-04-19T15:37:33.059Z,3.27
2023-04-19T15:40:01.416Z,2.17
2023-04-19T15:42:29.578Z,2.23
2023-04-19T15:44:57.543Z,1.63
2023-04-19T15:47:25.671Z,2.97
2023-04-19T15:49:54.865Z,3.17
2023-04-19T15:52:24.432Z,1.77
2023-04-19T15:54:52.554Z,1.83
2023-04-19T15:57:20.490Z,2.73
2023-04-19T15:59:48.653Z,1.53
2023-04-19T16:02:16.958Z,3.70
2023-04-19T16:04:48.019Z,3.20
2023-04-19T16:07:16.312Z,2.73
2023-04-19T16:09:45.826Z,2.03
2023-04-19T16:12:13.939Z,2.07
2023-04-19T16:14:41.994Z,2.70
2023-04-19T16:17:10.219Z,2.50
2023-04-19T16:19:38.140Z,5.07
2023-04-19T16:22:06.702Z,4.33
2023-04-19T16:24:34.735Z,6.50
2023-04-19T16:27:04.616Z,6.10
2023-04-19T16:29:32.622Z,5.90
2023-04-19T16:32:00.700Z,7.43
2023-04-19T16:34:28.854Z,8.07
2023-04-19T16:36:57.343Z,8.50
2023-04-19T16:39:25.652Z,9.30
2023-04-19T16:41:54.735Z,6.60
2023-04-19T16:44:24.065Z,10.33
2023-04-19T16:46:51.944Z,8.67
2023-04-19T16:49:21.992Z,7.77
2023-04-19T16:51:50.359Z,8.00
2023-04-19T16:54:18.584Z,10.83
2023-04-19T16:56:47.615Z,8.23
2023-04-19T16:59:15.865Z,7.17
2023-04-19T17:01:45.575Z,8.67
2023-04-19T17:04:15.917Z,9.70
2023-04-19T17:06:43.979Z,8.27
2023-04-19T17:09:11.980Z,10.43
2023-04-19T17:11:40.223Z,9.57
2023-04-19T17:14:08.251Z,8.17
2023-04-19T17:16:36.265Z,10.53
2023-04-19T17:19:05.617Z,10.53
2023-04-19T17:21:34.004Z,9.47
2023-04-19T17:24:02.139Z,8.57
2023-04-19T17:26:30.138Z,8.10
2023-04-19T17:29:00.580Z,8.03
2023-04-19T17:31:29.818Z,8.30
2023-04-19T17:33:57.981Z,9.80
2023-04-19T17:36:28.163Z,9.57
2023-04-19T17:38:56.898Z,7.67
2023-04-19T17:41:24.796Z,7.77
2023-04-19T17:43:52.864Z,10.63
2023-04-19T17:46:31.074Z,7.67
2023-04-19T17:49:01.405Z,8.77
2023-04-19T17:51:31.116Z,8.43
2023-04-19T17:53:59.045Z,9.70
2023-04-19T17:56:26.985Z,10.53
2023-04-19T17:58:54.917Z,14.07
2023-04-19T18:01:24.456Z,13.63
2023-04-19T18:03:52.732Z,10.97
2023-04-19T18:06:21.394Z,12.37
2023-04-19T18:08:50.785Z,13.27
2023-04-19T18:11:19.324Z,13.60
2023-04-19T18:13:47.575Z,14.13
2023-04-19T18:16:17.318Z,14.23
2023-04-19T18:18:45.620Z,18.23
2023-04-19T18:21:13.531Z,19.83
2023-04-19T18:23:41.677Z,19.13
2023-04-19T18:26:12.847Z,22.80
2023-04-19T18:28:40.838Z,24.93
2023-04-19T18:31:09.624Z,33.43
2023-04-19T18:33:38.027Z,34.60
2023-04-19T18:36:05.932Z,35.60
2023-04-19T18:38:34.137Z,33.77
2023-04-19T18:41:02.201Z,27.40
2023-04-19T18:43:31.707Z,25.37
2023-04-19T18:46:00.596Z,30.13
2023-04-19T18:48:29.845Z,35.20
2023-04-19T18:50:59.432Z,33.83
2023-04-19T18:53:31.108Z,22.30
2023-04-19T18:55:59.409Z,24.20
2023-04-19T18:58:28.296Z,26.50
2023-04-19T19:00:58.250Z,23.10
2023-04-19T19:05:58.619Z,19.47
2023-04-19T19:08:27.554Z,22.00
2023-04-19T19:13:26.541Z,19.93
2023-04-19T19:15:54.531Z,28.93
2023-04-19T19:18:24.581Z,32.93
2023-04-19T19:20:53.812Z,25.07
2023-04-19T19:23:31.583Z,12.83
2023-04-19T19:26:06.212Z,13.63
2023-04-19T19:28:34.448Z,14.03
2023-04-19T19:31:02.870Z,13.40
2023-04-19T19:33:32.802Z,14.00
2023-04-19T19:36:01.227Z,14.00
2023-04-19T19:38:29.523Z,13.77
2023-04-19T19:43:28.562Z,14.30
2023-04-19T19:45:56.654Z,14.60
2023-04-19T19:48:25.431Z,15.43
2023-04-19T19:51:24.814Z,17.20
2023-04-19T19:53:43.733Z,13.00
2023-04-19T19:56:19.052Z,14.37
2023-04-19T19:58:51.876Z,17.70
2023-04-19T20:01:22.780Z,18.07
2023-04-19T20:03:51.802Z,17.50
2023-04-19T20:08:52.661Z,18.50
2023-04-19T20:11:20.879Z,19.73
2023-04-19T20:13:49.132Z,18.87
2023-04-19T20:16:18.836Z,15.97
2023-04-19T20:18:49.377Z,18.77
2023-04-19T20:21:19.739Z,15.67
2023-04-19T20:23:49.131Z,17.87
2023-04-19T20:26:17.293Z,14.70
2023-04-19T20:28:45.588Z,16.17
2023-04-19T20:31:13.519Z,15.37
2023-04-19T20:33:41.546Z,16.73
2023-04-19T20:36:09.884Z,18.00
2023-04-19T20:38:38.338Z,16.80
2023-04-19T20:41:07.747Z,17.63
2023-04-19T20:43:35.966Z,19.70
2023-04-19T20:46:04.463Z,17.67
2023-04-19T20:48:32.472Z,17.50
2023-04-19T20:51:00.985Z,16.60
2023-04-19T20:53:29.309Z,18.27
2023-04-19T20:55:57.581Z,16.30
2023-04-19T20:58:27.290Z,18.33
2023-04-19T21:00:55.755Z,15.47
2023-04-19T21:03:23.756Z,15.23
2023-04-19T21:05:52.249Z,16.77
2023-04-19T21:08:20.857Z,14.60
2023-04-19T21:10:49.023Z,13.13
2023-04-19T21:13:17.008Z,13.80
2023-04-19T21:15:46.601Z,10.73
2023-04-19T21:18:14.784Z,12.17
2023-04-19T21:20:42.976Z,13.73
2023-04-19T21:23:11.498Z,14.30
2023-04-19T21:25:40.823Z,14.40
2023-04-19T21:28:09.284Z,16.93
2023-04-19T21:30:38.823Z,15.50
2023-04-19T21:33:08.331Z,14.10
2023-04-19T21:35:36.626Z,16.13
2023-04-19T21:38:05.620Z,17.03
2023-04-19T21:40:33.612Z,15.77
2023-04-19T21:43:02.021Z,15.67
2023-04-19T21:45:30.439Z,19.37
2023-04-19T21:47:59.646Z,15.03
2023-04-19T21:50:29.311Z,12.83
2023-04-19T21:52:57.592Z,14.70
2023-04-19T21:55:25.699Z,13.60
2023-04-19T21:57:54.575Z,13.37
2023-04-19T22:00:22.913Z,14.03
2023-04-19T22:02:51.386Z,12.67
2023-04-19T22:05:20.049Z,14.63
2023-04-19T22:07:50.243Z,12.33
2023-04-19T22:10:18.461Z,11.70
2023-04-19T22:12:57.842Z,12.63
2023-04-19T22:15:27.125Z,11.63
2023-04-19T22:17:56.083Z,9.67
2023-04-19T22:20:24.351Z,9.37
2023-04-19T22:22:54.159Z,9.50
2023-04-19T22:25:22.574Z,9.37
2023-04-19T22:27:50.706Z,7.90
2023-04-19T22:30:18.801Z,8.10
2023-04-19T22:32:46.727Z,9.17
2023-04-19T22:35:15.367Z,7.93
2023-04-19T22:37:43.652Z,7.80
2023-04-19T22:40:14.227Z,11.37
2023-04-19T22:42:42.253Z,8.55
2023-04-19T22:45:11.440Z,9.27
2023-04-19T22:47:39.506Z,9.07
2023-04-19T22:50:08.955Z,8.53
2023-04-19T22:52:37.494Z,7.87
2023-04-19T22:55:07.033Z,9.00
2023-04-19T22:57:37.584Z,7.57
2023-04-19T23:00:07.548Z,8.63
2023-04-19T23:02:37.874Z,9.30
2023-04-19T23:05:07.131Z,7.33
2023-04-19T23:07:35.394Z,8.50
2023-04-19T23:10:04.158Z,9.07
2023-04-19T23:12:33.820Z,7.97
2023-04-19T23:15:04.073Z,8.40
2023-04-19T23:17:32.321Z,8.70
2023-04-19T23:20:00.714Z,9.30
2023-04-19T23:22:28.885Z,8.83
2023-04-19T23:24:57.062Z,8.77
2023-04-19T23:27:25.117Z,11.30
2023-04-19T23:29:54.301Z,15.73
2023-04-19T23:32:24.116Z,12.40
2023-04-19T23:34:52.311Z,13.03
2023-04-19T23:37:21.174Z,12.07
2023-04-19T23:39:50.210Z,13.43
2023-04-19T23:42:18.323Z,12.33
2023-04-19T23:44:47.519Z,12.27
2023-04-19T23:47:16.028Z,11.50
2023-04-19T23:49:45.728Z,11.47
2023-04-19T23:52:13.969Z,12.77
2023-04-19T23:54:42.166Z,13.10
2023-04-19T23:57:10.787Z,12.33
2023-04-19T23:59:38.698Z,12.00
